| time (UTC) | temp F | wind direction | speed knots | gust knots | rain 1hr in | rain 24hr in | rain mn in | humidity % | barometer mb |
| 20260504150710 | 69 | 274 | 0.0 | 2.6 | 0.00 | 0.00 | 0.00 | 52 | 1018.7 |
| 20260504150207 | 69 | 214 | 0.9 | 2.6 | 0.00 | 0.00 | 0.00 | 50 | 1018.6 |
| 20260504141136 | 64 | 291 | 0.0 | 0.0 | 0.00 | 0.00 | 0.00 | 60 | 1019.1 |
| 20260504140633 | 63 | 260 | 0.0 | 1.7 | 0.00 | 0.00 | 0.00 | 57 | 1019.1 |
| 20260504140128 | 62 | 177 | 0.0 | 1.7 | 0.00 | 0.00 | 0.00 | 58 | 1019.0 |
| 20260504130556 | 55 | 273 | 0.0 | 1.7 | 0.00 | 0.00 | 0.00 | 73 | 1019.1 |
| 20260504110444 | 41 | 299 | 0.0 | 0.0 | 0.00 | 0.00 | 0.00 | 96 | 1018.9 |
| 20260504100407 | 41 | 299 | 0.0 | 0.0 | 0.00 | 0.00 | 0.00 | 95 | 1018.6 |
| 20260504081800 | 43 | 299 | 0.0 | 0.0 | 0.00 | 0.00 | 0.00 | 94 | 1018.2 |
| 20260504081256 | 43 | 299 | 0.0 | 0.0 | 0.00 | 0.00 | 0.00 | 94 | 1018.1 |
| 20260504080753 | 43 | 299 | 0.0 | 0.0 | 0.00 | 0.00 | 0.00 | 94 | 1018.2 |
| 20260504080249 | 43 | 299 | 0.0 | 0.0 | 0.00 | 0.00 | 0.00 | 94 | 1018.1 |
| 20260504070217 | 44 | 299 | 0.0 | 0.0 | 0.00 | 0.00 | 0.00 | 92 | 1018.4 |
| 20260504060137 | 45 | 299 | 0.0 | 0.0 | 0.00 | 0.00 | 0.00 | 90 | 1019.3 |
| 20260504050605 | 47 | 299 | 0.0 | 0.0 | 0.00 | 0.00 | 0.00 | 87 | 1018.8 |
| 20260504045559 | 47 | 299 | 0.0 | 0.0 | 0.00 | 0.00 | 0.00 | 87 | 1018.8 |
| 20260504045054 | 47 | 299 | 0.0 | 0.0 | 0.00 | 0.00 | 0.00 | 87 | 1018.9 |
| 20260504044552 | 47 | 299 | 0.0 | 0.0 | 0.00 | 0.00 | 0.00 | 88 | 1018.9 |
| 20260504044049 | 47 | 299 | 0.0 | 0.0 | 0.00 | 0.00 | 0.00 | 88 | 1019.0 |
| 20260504043546 | 47 | 299 | 0.0 | 0.0 | 0.00 | 0.00 | 0.00 | 88 | 1019.0 |
| 20260504043043 | 47 | 299 | 0.0 | 0.0 | 0.00 | 0.00 | 0.00 | 87 | 1019.1 |
| 20260504042540 | 47 | 299 | 0.0 | 0.0 | 0.00 | 0.00 | 0.00 | 87 | 1018.9 |
| 20260504042037 | 47 | 299 | 0.0 | 0.0 | 0.00 | 0.00 | 0.00 | 86 | 1019.1 |
| 20260504041533 | 47 | 299 | 0.0 | 0.0 | 0.00 | 0.00 | 0.00 | 86 | 1019.3 |
| 20260504041029 | 47 | 299 | 0.0 | 0.0 | 0.00 | 0.00 | 0.00 | 86 | 1019.2 |
| 20260504040527 | 47 | 299 | 0.0 | 0.0 | 0.00 | 0.00 | 0.00 | 86 | 1019.3 |
| 20260504040024 | 48 | 299 | 0.0 | 0.0 | 0.00 | 0.00 | 0.00 | 86 | 1019.3 |
| 20260504035521 | 48 | 299 | 0.0 | 0.0 | 0.00 | 0.00 | 0.00 | 86 | 1019.0 |
| 20260504035017 | 48 | 299 | 0.0 | 0.0 | 0.00 | 0.00 | 0.00 | 86 | 1019.1 |
| 20260504034514 | 48 | 299 | 0.0 | 0.0 | 0.00 | 0.00 | 0.00 | 85 | 1019.3 |
| 20260504034011 | 48 | 299 | 0.0 | 0.0 | 0.00 | 0.00 | 0.00 | 85 | 1019.2 |
| 20260504033509 | 48 | 299 | 0.0 | 0.0 | 0.00 | 0.00 | 0.00 | 84 | 1019.1 |
| 20260504033006 | 49 | 299 | 0.0 | 0.0 | 0.00 | 0.00 | 0.00 | 85 | 1019.0 |
| 20260504032503 | 49 | 299 | 0.0 | 0.0 | 0.00 | 0.00 | 0.00 | 85 | 1019.0 |
| 20260504031959 | 49 | 299 | 0.0 | 0.0 | 0.00 | 0.00 | 0.00 | 85 | 1019.3 |
| 20260504031456 | 50 | 299 | 0.0 | 0.0 | 0.00 | 0.00 | 0.00 | 84 | 1019.1 |
| 20260504030953 | 50 | 299 | 0.0 | 0.0 | 0.00 | 0.00 | 0.00 | 83 | 1019.0 |
| 20260504030450 | 50 | 299 | 0.0 | 0.0 | 0.00 | 0.00 | 0.00 | 80 | 1019.2 |
| 20260504025946 | 50 | 299 | 0.0 | 0.0 | 0.00 | 0.00 | 0.00 | 80 | 1019.2 |
| 20260504025443 | 50 | 299 | 0.0 | 0.0 | 0.00 | 0.00 | 0.00 | 81 | 1019.0 |
| 20260504024940 | 50 | 299 | 0.0 | 0.0 | 0.00 | 0.00 | 0.00 | 82 | 1019.1 |
| 20260504024437 | 50 | 299 | 0.0 | 0.0 | 0.00 | 0.00 | 0.00 | 82 | 1019.1 |
| 20260504023934 | 51 | 299 | 0.0 | 0.0 | 0.00 | 0.00 | 0.00 | 82 | 1019.1 |
| 20260504023431 | 51 | 299 | 0.0 | 0.0 | 0.00 | 0.00 | 0.00 | 80 | 1019.0 |
| 20260504022926 | 51 | 299 | 0.0 | 0.0 | 0.00 | 0.00 | 0.00 | 79 | 1018.9 |
| 20260504022423 | 51 | 297 | 0.0 | 0.0 | 0.00 | 0.00 | 0.00 | 79 | 1018.9 |
| 20260504021920 | 51 | 297 | 0.0 | 0.0 | 0.00 | 0.00 | 0.00 | 79 | 1018.9 |
| 20260504021417 | 51 | 296 | 0.0 | 0.0 | 0.00 | 0.00 | 0.00 | 78 | 1018.7 |
| 20260504020914 | 52 | 296 | 0.0 | 0.0 | 0.00 | 0.00 | 0.00 | 77 | 1019.0 |
| 20260504020410 | 52 | 296 | 0.0 | 0.0 | 0.00 | 0.00 | 0.00 | 76 | 1018.8 |
| 20260504015907 | 52 | 296 | 0.0 | 0.0 | 0.00 | 0.00 | 0.00 | 74 | 1018.9 |
| 20260504015403 | 53 | 296 | 0.0 | 0.0 | 0.00 | 0.00 | 0.00 | 74 | 1018.7 |
| 20260504014859 | 53 | 296 | 0.0 | 0.0 | 0.00 | 0.00 | 0.00 | 73 | 1018.7 |
| 20260504014355 | 53 | 295 | 0.0 | 0.0 | 0.00 | 0.00 | 0.00 | 72 | 1018.6 |
| 20260504013853 | 54 | 295 | 0.0 | 0.0 | 0.00 | 0.00 | 0.00 | 72 | 1018.6 |
| 20260504013351 | 54 | 295 | 0.0 | 0.0 | 0.00 | 0.00 | 0.00 | 71 | 1018.5 |
| 20260504012847 | 55 | 295 | 0.0 | 0.0 | 0.00 | 0.00 | 0.00 | 71 | 1018.4 |
| 20260504012345 | 55 | 295 | 0.0 | 0.0 | 0.00 | 0.00 | 0.00 | 71 | 1018.4 |
| 20260504011842 | 55 | 295 | 0.0 | 0.0 | 0.00 | 0.00 | 0.00 | 68 | 1018.4 |
| 20260504011338 | 56 | 294 | 0.0 | 0.0 | 0.00 | 0.00 | 0.00 | 68 | 1018.3 |
| 20260504010835 | 56 | 295 | 0.0 | 0.0 | 0.00 | 0.00 | 0.00 | 69 | 1018.4 |
| 20260504010330 | 57 | 294 | 0.0 | 0.0 | 0.00 | 0.00 | 0.00 | 68 | 1018.4 |
| 20260504005827 | 57 | 294 | 0.0 | 0.0 | 0.00 | 0.00 | 0.00 | 65 | 1018.4 |
| 20260504005324 | 58 | 294 | 0.0 | 0.0 | 0.00 | 0.00 | 0.00 | 62 | 1018.3 |
| 20260504004822 | 58 | 294 | 0.0 | 0.0 | 0.00 | 0.00 | 0.00 | 60 | 1018.4 |
| 20260504004319 | 59 | 294 | 0.0 | 0.0 | 0.00 | 0.00 | 0.00 | 61 | 1018.1 |
| 20260504003815 | 59 | 294 | 0.0 | 0.0 | 0.00 | 0.00 | 0.00 | 57 | 1018.2 |
| 20260504003312 | 60 | 296 | 0.0 | 0.0 | 0.00 | 0.00 | 0.00 | 59 | 1018.1 |
| 20260504002809 | 60 | 296 | 0.0 | 0.0 | 0.00 | 0.00 | 0.00 | 66 | 1018.1 |
| 20260504002306 | 61 | 296 | 0.0 | 0.0 | 0.00 | 0.00 | 0.00 | 59 | 1018.1 |
| 20260504001804 | 61 | 294 | 0.0 | 0.0 | 0.00 | 0.00 | 0.00 | 59 | 1018.0 |
| 20260504001300 | 62 | 296 | 0.0 | 0.0 | 0.00 | 0.00 | 0.00 | 51 | 1017.9 |
| 20260504000757 | 62 | 290 | 0.0 | 0.0 | 0.00 | 0.00 | 0.00 | 55 | 1018.1 |
| 20260504000254 | 63 | 287 | 0.0 | 0.0 | 0.00 | 0.00 | 0.00 | 50 | 1018.0 |
| 20260503235752 | 63 | 276 | 0.0 | 0.0 | 0.00 | 0.00 | 0.00 | 50 | 1017.8 |
| 20260503235249 | 64 | 271 | 0.0 | 0.0 | 0.00 | 0.00 | 0.00 | 52 | 1017.9 |
| 20260503234747 | 64 | 269 | 0.0 | 0.0 | 0.00 | 0.00 | 0.00 | 48 | 1017.9 |
| 20260503234245 | 65 | 287 | 0.0 | 0.0 | 0.00 | 0.00 | 0.00 | 48 | 1017.7 |
| 20260503233741 | 65 | 282 | 0.0 | 0.0 | 0.00 | 0.00 | 0.00 | 47 | 1018.1 |
| 20260503233237 | 66 | 256 | 0.0 | 0.0 | 0.00 | 0.00 | 0.00 | 45 | 1017.9 |
| 20260503232734 | 66 | 318 | 0.0 | 0.0 | 0.00 | 0.00 | 0.00 | 44 | 1017.9 |
| 20260503232232 | 66 | 300 | 0.0 | 0.9 | 0.00 | 0.00 | 0.00 | 43 | 1017.9 |
| 20260503231730 | 67 | 287 | 0.0 | 0.0 | 0.00 | 0.00 | 0.00 | 43 | 1017.9 |
| 20260503231226 | 67 | 268 | 0.0 | 1.7 | 0.00 | 0.00 | 0.00 | 44 | 1017.8 |
| 20260503230722 | 68 | 278 | 0.0 | 0.0 | 0.00 | 0.00 | 0.00 | 42 | 1017.9 |
| 20260503230220 | 69 | 220 | 0.0 | 2.6 | 0.00 | 0.00 | 0.00 | 41 | 1017.9 |
| 20260503225717 | 70 | 270 | 0.0 | 0.9 | 0.00 | 0.00 | 0.00 | 36 | 1017.7 |
| 20260503225217 | 71 | 271 | 0.0 | 0.9 | 0.00 | 0.00 | 0.00 | 35 | 1017.8 |
| 20260503224715 | 71 | 244 | 0.9 | 0.9 | 0.00 | 0.00 | 0.00 | 35 | 1017.9 |
| 20260503224212 | 72 | 283 | 0.0 | 1.7 | 0.00 | 0.00 | 0.00 | 36 | 1018.0 |
| 20260503223710 | 73 | 257 | 0.0 | 0.9 | 0.00 | 0.00 | 0.00 | 37 | 1018.0 |
| 20260503223207 | 73 | 278 | 0.0 | 0.0 | 0.00 | 0.00 | 0.00 | 35 | 1018.1 |
| 20260503222703 | 75 | 271 | 0.9 | 0.9 | 0.00 | 0.00 | 0.00 | 34 | 1017.8 |
| 20260503222201 | 75 | 187 | 0.0 | 0.9 | 0.00 | 0.00 | 0.00 | 32 | 1018.1 |
| 20260503221659 | 74 | 261 | 0.0 | 0.9 | 0.00 | 0.00 | 0.00 | 34 | 1018.1 |
| 20260503221156 | 74 | 282 | 0.0 | 0.9 | 0.00 | 0.00 | 0.00 | 36 | 1018.2 |
| 20260503220653 | 73 | 291 | 0.0 | 1.7 | 0.00 | 0.00 | 0.00 | 37 | 1018.2 |
| 20260503220149 | 73 | 283 | 0.9 | 2.6 | 0.00 | 0.00 | 0.00 | 36 | 1018.3 |
| 20260503215647 | 72 | 251 | 0.9 | 0.9 | 0.00 | 0.00 | 0.00 | 37 | 1018.1 |
| 20260503215143 | 73 | 264 | 0.9 | 1.7 | 0.00 | 0.00 | 0.00 | 36 | 1018.2 |
| 20260503214642 | 73 | 223 | 0.9 | 1.7 | 0.00 | 0.00 | 0.00 | 37 | 1018.3 |
| 20260503214137 | 73 | 194 | 3.5 | 6.1 | 0.00 | 0.00 | 0.00 | 35 | 1018.3 |
| 20260503213632 | 73 | 307 | 0.9 | 0.9 | 0.00 | 0.00 | 0.00 | 34 | 1018.3 |
| 20260503213128 | 72 | 230 | 0.9 | 0.9 | 0.00 | 0.00 | 0.00 | 38 | 1018.3 |
| 20260503212625 | 73 | 162 | 2.6 | 5.2 | 0.00 | 0.00 | 0.00 | 36 | 1018.4 |
| 20260503212123 | 74 | 256 | 0.0 | 0.9 | 0.00 | 0.00 | 0.00 | 40 | 1018.4 |
| 20260503211620 | 73 | 217 | 0.0 | 1.7 | 0.00 | 0.00 | 0.00 | 38 | 1018.5 |
| 20260503211116 | 73 | 257 | 1.7 | 3.5 | 0.00 | 0.00 | 0.00 | 38 | 1018.5 |
| 20260503210612 | 75 | 278 | 3.5 | 7.0 | 0.00 | 0.00 | 0.00 | 36 | 1018.6 |
| 20260503210109 | 74 | 316 | 0.0 | 1.7 | 0.00 | 0.00 | 0.00 | 34 | 1018.7 |
| 20260503205605 | 74 | 258 | 0.9 | 1.7 | 0.00 | 0.00 | 0.00 | 34 | 1018.5 |
| 20260503205101 | 74 | 225 | 1.7 | 2.6 | 0.00 | 0.00 | 0.00 | 35 | 1018.8 |
| 20260503204558 | 73 | 274 | 0.0 | 0.9 | 0.00 | 0.00 | 0.00 | 35 | 1018.9 |
| 20260503204055 | 73 | 300 | 0.9 | 1.7 | 0.00 | 0.00 | 0.00 | 33 | 1019.0 |
| 20260503203552 | 74 | 34 | 1.7 | 1.7 | 0.00 | 0.00 | 0.00 | 32 | 1019.0 |
| 20260503203050 | 73 | 272 | 0.0 | 1.7 | 0.00 | 0.00 | 0.00 | 32 | 1019.1 |
| 20260503202547 | 74 | 204 | 1.7 | 2.6 | 0.00 | 0.00 | 0.00 | 33 | 1019.3 |
| 20260503202045 | 73 | 276 | 0.9 | 1.7 | 0.00 | 0.00 | 0.00 | 36 | 1019.3 |
| 20260503201543 | 73 | 210 | 3.5 | 6.1 | 0.00 | 0.00 | 0.00 | 33 | 1019.4 |
| 20260503201040 | 72 | 233 | 1.7 | 1.7 | 0.00 | 0.00 | 0.00 | 35 | 1019.3 |
| 20260503200531 | 73 | 278 | 0.0 | 2.6 | 0.00 | 0.00 | 0.00 | 37 | 1019.6 |
| 20260503200027 | 73 | 288 | 0.0 | 2.6 | 0.00 | 0.00 | 0.00 | 33 | 1019.6 |
| 20260503195525 | 73 | 270 | 2.6 | 5.2 | 0.00 | 0.00 | 0.00 | 36 | 1019.6 |
| 20260503195021 | 73 | 276 | 0.0 | 1.7 | 0.00 | 0.00 | 0.00 | 34 | 1019.9 |
| 20260503194518 | 73 | 296 | 0.0 | 0.9 | 0.00 | 0.00 | 0.00 | 35 | 1019.8 |
| 20260503194017 | 74 | 280 | 2.6 | 3.5 | 0.00 | 0.00 | 0.00 | 31 | 1019.9 |
| 20260503193514 | 73 | 244 | 0.9 | 1.7 | 0.00 | 0.00 | 0.00 | 37 | 1020.0 |
| 20260503193010 | 71 | 294 | 0.0 | 1.7 | 0.00 | 0.00 | 0.00 | 36 | 1020.1 |
| 20260503192506 | 71 | 265 | 0.9 | 1.7 | 0.00 | 0.00 | 0.00 | 31 | 1020.5 |
| 20260503192002 | 71 | 239 | 0.0 | 1.7 | 0.00 | 0.00 | 0.00 | 35 | 1020.3 |
| 20260503191459 | 71 | 283 | 0.0 | 1.7 | 0.00 | 0.00 | 0.00 | 39 | 1020.4 |
| 20260503190955 | 71 | 214 | 0.9 | 2.6 | 0.00 | 0.00 | 0.00 | 36 | 1020.4 |
| 20260503190453 | 71 | 338 | 0.0 | 2.6 | 0.00 | 0.00 | 0.00 | 35 | 1020.5 |
| 20260503185950 | 72 | 329 | 0.9 | 3.5 | 0.00 | 0.00 | 0.00 | 40 | 1020.4 |
| 20260503185446 | 71 | 283 | 0.9 | 1.7 | 0.00 | 0.00 | 0.00 | 39 | 1020.5 |
| 20260503184945 | 71 | 281 | 0.9 | 1.7 | 0.00 | 0.00 | 0.00 | 40 | 1020.5 |
| 20260503184442 | 71 | 261 | 2.6 | 6.1 | 0.00 | 0.00 | 0.00 | 39 | 1020.7 |
| 20260503183938 | 71 | 266 | 0.9 | 1.7 | 0.00 | 0.00 | 0.00 | 42 | 1020.8 |
| 20260503183435 | 69 | 280 | 0.9 | 6.1 | 0.00 | 0.00 | 0.00 | 42 | 1020.9 |
| 20260503182932 | 69 | 277 | 0.9 | 2.6 | 0.00 | 0.00 | 0.00 | 42 | 1021.0 |
| 20260503182431 | 69 | 218 | 0.9 | 1.7 | 0.00 | 0.00 | 0.00 | 39 | 1020.9 |
| 20260503181928 | 69 | 196 | 2.6 | 6.1 | 0.00 | 0.00 | 0.00 | 38 | 1021.0 |
| 20260503181425 | 70 | 13 | 0.0 | 1.7 | 0.00 | 0.00 | 0.00 | 41 | 1020.9 |
| 20260503180921 | 69 | 194 | 1.7 | 2.6 | 0.00 | 0.00 | 0.00 | 40 | 1021.1 |
| 20260503180420 | 69 | 216 | 3.5 | 7.0 | 0.00 | 0.00 | 0.00 | 37 | 1021.3 |
| 20260503175917 | 69 | 290 | 0.0 | 2.6 | 0.00 | 0.00 | 0.00 | 42 | 1021.3 |
| 20260503175415 | 68 | 358 | 1.7 | 2.6 | 0.00 | 0.00 | 0.00 | 41 | 1021.3 |
| 20260503174910 | 69 | 278 | 0.0 | 1.7 | 0.00 | 0.00 | 0.00 | 44 | 1021.5 |
| 20260503174409 | 69 | 144 | 1.7 | 1.7 | 0.00 | 0.00 | 0.00 | 41 | 1021.4 |
| 20260503173908 | 69 | 257 | 0.0 | 2.6 | 0.00 | 0.00 | 0.00 | 39 | 1021.5 |
| 20260503173405 | 69 | 262 | 0.9 | 1.7 | 0.00 | 0.00 | 0.00 | 41 | 1021.6 |
| 20260503172902 | 68 | 205 | 0.9 | 1.7 | 0.00 | 0.00 | 0.00 | 41 | 1021.6 |
| 20260503172359 | 68 | 259 | 0.9 | 1.7 | 0.00 | 0.00 | 0.00 | 38 | 1021.5 |
| 20260503171855 | 68 | 343 | 0.0 | 0.9 | 0.00 | 0.00 | 0.00 | 43 | 1021.7 |
| 20260503171352 | 67 | 259 | 1.7 | 2.6 | 0.00 | 0.00 | 0.00 | 42 | 1021.5 |
| 20260503170850 | 68 | 170 | 3.5 | 5.2 | 0.00 | 0.00 | 0.00 | 44 | 1021.7 |
| 20260503170346 | 68 | 190 | 1.7 | 2.6 | 0.00 | 0.00 | 0.00 | 45 | 1021.6 |